Time;durP1;ratioP1;P1;durP2;ratioP2;P2;SDS_P1;SDS_P2;PMS_P1;PMS_P2;Temp;Humidity;BMP_temperature;BMP_pressure;BME280_temperature;BME280_humidity;BME280_pressure;Samples;Min_cycle;Max_cycle;Signal;HPM_P1;HPM_P2
2021/08/24 00:00:49;;;;;;;1.75;1.15;;;21.40;64.00;;;;;;4900179;29;20393;-84
2021/08/24 00:03:15;;;;;;;1.20;1.02;;;21.30;64.00;;;;;;4915584;29;20126;-84
2021/08/24 00:05:41;;;;;;;1.65;1.30;;;21.30;64.00;;;;;;4884139;29;20047;-86
2021/08/24 00:08:08;;;;;;;1.52;1.17;;;21.30;64.00;;;;;;4915847;29;20473;-85
2021/08/24 00:10:37;;;;;;;1.15;1.05;;;21.30;64.00;;;;;;4915256;29;20031;-85
2021/08/24 00:13:04;;;;;;;1.65;1.20;;;21.20;64.00;;;;;;4899704;29;20056;-85
2021/08/24 00:15:30;;;;;;;1.90;1.30;;;21.20;64.00;;;;;;4916009;29;20497;-85
2021/08/24 00:17:58;;;;;;;1.25;1.13;;;21.20;64.00;;;;;;4899712;29;20092;-85
2021/08/24 00:20:30;;;;;;;1.88;1.50;;;21.20;64.00;;;;;;4899228;29;20036;-86
2021/08/24 00:23:01;;;;;;;1.50;1.20;;;21.10;64.00;;;;;;4915213;29;20043;-84
2021/08/24 00:25:27;;;;;;;1.23;1.00;;;21.10;64.00;;;;;;4899122;29;20048;-85
2021/08/24 00:27:52;;;;;;;2.58;1.20;;;21.10;64.00;;;;;;4868675;29;20035;-85
2021/08/24 00:30:18;;;;;;;1.77;1.15;;;21.00;64.00;;;;;;4899654;29;20040;-85
2021/08/24 00:32:44;;;;;;;2.03;1.30;;;21.10;64.10;;;;;;4915201;29;20036;-85
2021/08/24 00:35:10;;;;;;;1.55;1.10;;;21.00;64.10;;;;;;4915131;29;20048;-85
2021/08/24 00:37:35;;;;;;;1.73;1.20;;;21.00;64.10;;;;;;4897719;29;20033;-85
2021/08/24 00:40:03;;;;;;;1.70;1.17;;;21.00;64.10;;;;;;4899782;29;20028;-86
2021/08/24 00:42:28;;;;;;;1.98;1.20;;;21.00;64.10;;;;;;4914188;29;20028;-85
2021/08/24 00:44:54;;;;;;;2.53;1.50;;;21.00;64.10;;;;;;4902762;29;20123;-85
2021/08/24 00:47:23;;;;;;;1.83;1.30;;;21.00;64.10;;;;;;4899875;29;20032;-85
2021/08/24 00:49:50;;;;;;;2.25;1.40;;;20.90;64.10;;;;;;4902454;29;20023;-85
2021/08/24 00:52:22;;;;;;;1.13;1.02;;;20.90;64.10;;;;;;4911638;29;20039;-84
2021/08/24 00:54:48;;;;;;;1.73;1.10;;;20.80;64.10;;;;;;4918501;29;20024;-85
2021/08/24 00:57:18;;;;;;;1.95;1.35;;;20.90;64.10;;;;;;4918392;29;20052;-85
2021/08/24 00:59:44;;;;;;;2.10;1.20;;;20.80;64.10;;;;;;4918275;29;20024;-85
2021/08/24 01:02:11;;;;;;;2.25;1.45;;;20.80;64.10;;;;;;4900486;29;20434;-85
2021/08/24 01:04:38;;;;;;;1.23;1.13;;;20.80;64.20;;;;;;4902317;29;20095;-85
2021/08/24 01:07:06;;;;;;;2.50;1.27;;;20.80;64.20;;;;;;4917738;29;20119;-84
2021/08/24 01:10:13;;;;;;;1.65;1.20;;;20.70;64.20;;;;;;4919186;29;20024;-83
2021/08/24 01:12:57;;;;;;;1.95;1.40;;;20.70;64.30;;;;;;4907173;29;20035;-85
2021/08/24 01:15:44;;;;;;;2.90;1.20;;;20.70;64.20;;;;;;4908777;29;20075;-85
2021/08/24 01:18:12;;;;;;;2.22;1.38;;;20.60;64.30;;;;;;4918133;29;20025;-85
2021/08/24 01:21:25;;;;;;;1.83;1.20;;;20.60;64.20;;;;;;4917872;29;20020;-85
2021/08/24 01:24:10;;;;;;;1.85;1.23;;;20.60;64.50;;;;;;4882390;29;20585;-85
2021/08/24 01:26:39;;;;;;;2.05;1.25;;;20.60;64.30;;;;;;4902123;29;20032;-85
2021/08/24 01:29:44;;;;;;;1.42;1.15;;;20.50;64.30;;;;;;4919366;29;20036;-84
2021/08/24 01:32:47;;;;;;;2.03;1.58;;;20.50;64.40;;;;;;4913895;29;20031;-85
2021/08/24 01:35:25;;;;;;;1.42;1.10;;;20.50;64.40;;;;;;4918311;29;20028;-85
2021/08/24 01:38:19;;;;;;;2.22;1.30;;;20.40;64.40;;;;;;4917448;29;20036;-85
2021/08/24 01:40:58;;;;;;;1.60;1.10;;;20.40;64.50;;;;;;4899883;29;20466;-84
2021/08/24 01:43:39;;;;;;;1.92;1.30;;;20.40;64.40;;;;;;4917315;29;20473;-85
2021/08/24 01:46:17;;;;;;;2.53;1.10;;;20.40;64.60;;;;;;4901665;29;20024;-85
2021/08/24 01:48:48;;;;;;;2.03;1.10;;;20.30;64.50;;;;;;4917078;29;20159;-87
2021/08/24 01:51:26;;;;;;;2.08;1.33;;;20.40;64.60;;;;;;4910206;29;20412;-86
2021/08/24 01:54:03;;;;;;;2.38;1.45;;;20.30;64.60;;;;;;4898215;29;20148;-84
2021/08/24 01:56:35;;;;;;;4.32;1.20;;;20.30;64.60;;;;;;4896986;29;20037;-85
2021/08/24 01:59:15;;;;;;;1.80;1.10;;;20.30;64.60;;;;;;4915547;29;20032;-83
2021/08/24 02:01:50;;;;;;;1.13;1.00;;;20.30;64.70;;;;;;4917293;29;20123;-85
2021/08/24 02:04:23;;;;;;;2.08;1.10;;;20.20;64.60;;;;;;4901377;29;20519;-85
2021/08/24 02:06:49;;;;;;;2.08;1.35;;;20.20;64.60;;;;;;4916996;29;20028;-85
2021/08/24 02:09:23;;;;;;;1.92;1.27;;;20.20;64.60;;;;;;4893406;29;20478;-85
2021/08/24 02:11:52;;;;;;;1.42;1.10;;;20.20;64.70;;;;;;4917087;29;20111;-85
2021/08/24 02:14:19;;;;;;;1.48;1.25;;;20.20;64.70;;;;;;4917017;29;20091;-84
2021/08/24 02:16:48;;;;;;;1.83;1.13;;;20.20;64.70;;;;;;4917222;29;20087;-84
2021/08/24 02:19:21;;;;;;;1.98;1.30;;;20.20;64.70;;;;;;4916715;29;20028;-85
2021/08/24 02:21:54;;;;;;;1.88;1.30;;;20.10;64.70;;;;;;4916735;29;20465;-85
2021/08/24 02:24:27;;;;;;;2.28;1.30;;;20.10;64.70;;;;;;4901421;29;20155;-85
2021/08/24 02:26:55;;;;;;;1.30;1.20;;;20.10;64.70;;;;;;4917941;29;20028;-84
2021/08/24 02:29:20;;;;;;;2.35;1.30;;;20.10;64.80;;;;;;4917047;29;20393;-85
2021/08/24 02:32:01;;;;;;;1.70;1.20;;;20.10;64.70;;;;;;4897545;29;20035;-85
2021/08/24 02:34:49;;;;;;;2.65;1.38;;;20.10;64.80;;;;;;4911661;29;20094;-85
2021/08/24 02:37:47;;;;;;;1.63;1.27;;;20.00;64.80;;;;;;4916316;29;20485;-84
2021/08/24 02:40:23;;;;;;;1.45;1.33;;;20.00;65.00;;;;;;4915968;29;20063;-85
2021/08/24 02:43:23;;;;;;;1.30;1.15;;;20.00;64.90;;;;;;4916517;29;20060;-85
2021/08/24 02:45:53;;;;;;;2.22;1.27;;;20.00;65.00;;;;;;4897672;29;20497;-85
2021/08/24 02:48:20;;;;;;;1.52;1.40;;;20.00;65.00;;;;;;4899009;29;20088;-84
2021/08/24 02:50:48;;;;;;;2.00;1.48;;;19.90;65.00;;;;;;4900455;29;20116;-85
2021/08/24 02:53:15;;;;;;;2.50;1.70;;;19.90;65.00;;;;;;4917588;29;20061;-85
2021/08/24 02:55:41;;;;;;;1.63;1.20;;;19.90;65.00;;;;;;4915698;29;20071;-85
2021/08/24 02:58:07;;;;;;;1.83;1.40;;;19.90;65.00;;;;;;4900639;29;20067;-85
2021/08/24 03:00:33;;;;;;;1.85;1.48;;;19.80;65.00;;;;;;4915949;29;20043;-84
2021/08/24 03:02:59;;;;;;;2.33;1.45;;;19.80;65.00;;;;;;4888860;29;20033;-84
2021/08/24 03:05:25;;;;;;;1.85;1.38;;;19.80;65.10;;;;;;4881261;29;20100;-84
2021/08/24 03:07:51;;;;;;;1.88;1.20;;;19.80;65.00;;;;;;4900068;29;20028;-85
2021/08/24 03:10:22;;;;;;;1.88;1.30;;;19.80;65.10;;;;;;4916229;29;20488;-85
2021/08/24 03:13:12;;;;;;;1.45;1.27;;;19.80;65.20;;;;;;4896926;29;20146;-85
2021/08/24 03:15:49;;;;;;;3.15;1.55;;;19.80;65.30;;;;;;4915811;29;20039;-85
2021/08/24 03:18:31;;;;;;;1.80;1.42;;;19.70;65.20;;;;;;4897323;29;20025;-85
2021/08/24 03:21:01;;;;;;;1.48;1.25;;;19.70;65.30;;;;;;4914947;29;20040;-84
2021/08/24 03:23:29;;;;;;;2.28;1.52;;;19.70;65.20;;;;;;4900450;29;20772;-85
2021/08/24 03:25:55;;;;;;;1.70;1.35;;;19.70;65.30;;;;;;4899781;29;20060;-84
2021/08/24 03:28:23;;;;;;;2.63;1.45;;;19.70;65.30;;;;;;4916346;29;20033;-84
2021/08/24 03:30:49;;;;;;;2.60;1.70;;;19.70;65.40;;;;;;4915842;29;20076;-84
2021/08/24 03:33:16;;;;;;;2.92;1.75;;;19.60;65.40;;;;;;4916298;29;20058;-85
2021/08/24 03:35:42;;;;;;;2.42;1.67;;;19.60;65.40;;;;;;4899560;29;20162;-87
2021/08/24 03:38:10;;;;;;;2.40;1.30;;;19.60;65.40;;;;;;4900433;29;20055;-84
2021/08/24 03:40:36;;;;;;;2.33;1.60;;;19.60;65.40;;;;;;4915624;29;20024;-85
2021/08/24 03:43:03;;;;;;;3.10;1.60;;;19.60;65.40;;;;;;4915778;29;20583;-85
2021/08/24 03:45:29;;;;;;;2.33;1.60;;;19.60;65.50;;;;;;4917100;29;20035;-85
2021/08/24 03:47:55;;;;;;;2.20;1.50;;;19.50;65.50;;;;;;4916268;29;20044;-85
2021/08/24 03:50:21;;;;;;;1.90;1.50;;;19.50;65.50;;;;;;4915898;29;20372;-85
2021/08/24 03:52:47;;;;;;;2.90;1.73;;;19.50;65.50;;;;;;4896658;29;20040;-84
2021/08/24 03:55:13;;;;;;;3.50;1.80;;;19.50;65.60;;;;;;4899963;29;20032;-85
2021/08/24 03:57:39;;;;;;;1.60;1.50;;;19.50;65.60;;;;;;4899911;29;20477;-85
2021/08/24 04:00:07;;;;;;;2.25;1.50;;;19.50;65.60;;;;;;4896924;29;20045;-83
2021/08/24 04:02:38;;;;;;;2.08;1.40;;;19.50;65.70;;;;;;4915555;29;20020;-85
2021/08/24 04:05:04;;;;;;;1.95;1.63;;;19.50;65.70;;;;;;4880988;29;20064;-85
2021/08/24 04:07:31;;;;;;;2.33;1.70;;;19.50;65.70;;;;;;4881396;29;20447;-84
2021/08/24 04:09:57;;;;;;;2.15;1.42;;;19.40;65.70;;;;;;4913191;29;20059;-86
2021/08/24 04:12:23;;;;;;;3.45;1.65;;;19.40;65.80;;;;;;4900921;29;20056;-84
2021/08/24 04:14:50;;;;;;;2.95;1.60;;;19.40;65.80;;;;;;4919475;29;20024;-85
2021/08/24 04:17:16;;;;;;;2.22;1.70;;;19.40;65.80;;;;;;4902031;29;20037;-86
2021/08/24 04:19:42;;;;;;;2.15;1.60;;;19.30;65.80;;;;;;4903562;29;20533;-85
2021/08/24 04:22:09;;;;;;;2.55;1.75;;;19.40;65.80;;;;;;4900963;29;20041;-85
2021/08/24 04:24:35;;;;;;;2.80;1.67;;;19.30;65.80;;;;;;4919242;29;20055;-84
2021/08/24 04:27:02;;;;;;;2.67;1.60;;;19.40;65.90;;;;;;4903243;29;20036;-85
2021/08/24 04:29:27;;;;;;;2.38;1.63;;;19.40;65.90;;;;;;4919266;29;20564;-86
2021/08/24 04:31:54;;;;;;;2.50;1.60;;;19.30;66.60;;;;;;4903194;29;20115;-84
2021/08/24 04:34:19;;;;;;;1.98;1.40;;;19.30;65.90;;;;;;4919059;29;20028;-85
2021/08/24 04:36:45;;;;;;;2.58;1.80;;;19.30;65.90;;;;;;4903510;29;20507;-85
2021/08/24 04:39:11;;;;;;;2.35;1.75;;;19.30;66.00;;;;;;4918751;29;20032;-85
2021/08/24 04:41:36;;;;;;;3.90;2.00;;;19.20;66.00;;;;;;4895158;29;20063;-87
2021/08/24 04:44:02;;;;;;;2.42;1.63;;;19.30;66.10;;;;;;4899713;29;20107;-85
2021/08/24 04:46:28;;;;;;;2.33;1.55;;;19.20;66.00;;;;;;4884440;29;20454;-85
2021/08/24 04:48:54;;;;;;;1.90;1.65;;;19.20;66.10;;;;;;4902811;29;20450;-85
2021/08/24 04:51:20;;;;;;;2.67;1.80;;;19.20;66.10;;;;;;4920047;29;20032;-84
2021/08/24 04:53:46;;;;;;;1.73;1.48;;;19.20;66.80;;;;;;4918766;29;20028;-85
2021/08/24 04:56:12;;;;;;;2.13;1.65;;;19.20;66.20;;;;;;4902719;29;20511;-85
2021/08/24 04:58:39;;;;;;;2.35;1.73;;;19.20;66.20;;;;;;4910661;29;20422;-85
2021/08/24 05:01:04;;;;;;;2.63;1.92;;;19.10;66.20;;;;;;4887358;29;20036;-84
2021/08/24 05:03:31;;;;;;;2.83;2.00;;;19.10;66.20;;;;;;4902619;29;20040;-84
2021/08/24 05:05:57;;;;;;;2.88;1.75;;;19.10;66.40;;;;;;4903455;29;20072;-83
2021/08/24 05:08:23;;;;;;;3.28;1.80;;;19.20;66.30;;;;;;4900767;29;20041;-85
2021/08/24 05:10:49;;;;;;;2.42;1.58;;;19.10;66.30;;;;;;4919561;29;20020;-84
2021/08/24 05:13:15;;;;;;;2.50;1.67;;;19.10;66.40;;;;;;4918183;29;20036;-84
2021/08/24 05:15:42;;;;;;;3.15;1.88;;;19.10;66.40;;;;;;4918239;29;20067;-84
2021/08/24 05:18:08;;;;;;;2.47;1.70;;;19.10;66.40;;;;;;4902810;29;20074;-84
2021/08/24 05:20:33;;;;;;;1.88;1.60;;;19.10;66.40;;;;;;4918077;29;20020;-85
2021/08/24 05:22:59;;;;;;;2.40;1.70;;;19.10;66.50;;;;;;4917912;29;20473;-83
2021/08/24 05:25:26;;;;;;;2.47;1.88;;;19.10;66.50;;;;;;4917721;29;20059;-85
2021/08/24 05:27:52;;;;;;;2.83;1.85;;;19.10;66.50;;;;;;4910247;29;20036;-85
2021/08/24 05:30:22;;;;;;;3.08;1.90;;;19.10;66.50;;;;;;4902210;29;20039;-85
2021/08/24 05:32:49;;;;;;;3.42;1.90;;;19.00;66.50;;;;;;4917796;29;20103;-86
2021/08/24 05:35:15;;;;;;;2.90;1.75;;;19.00;66.60;;;;;;4918100;29;20474;-85
2021/08/24 05:37:41;;;;;;;3.17;1.77;;;19.00;66.60;;;;;;4901118;29;20024;-84
2021/08/24 05:40:08;;;;;;;3.42;1.98;;;19.00;66.60;;;;;;4899067;29;20107;-85
2021/08/24 05:42:34;;;;;;;3.65;2.10;;;19.00;66.60;;;;;;4900046;29;20468;-86
2021/08/24 05:45:01;;;;;;;2.35;1.80;;;19.00;66.60;;;;;;4898977;29;20037;-85
2021/08/24 05:47:28;;;;;;;2.67;1.90;;;19.00;66.70;;;;;;4901645;29;20036;-84
2021/08/24 05:49:54;;;;;;;2.63;1.60;;;19.00;66.70;;;;;;4898855;29;20040;-88
2021/08/24 05:52:20;;;;;;;2.30;1.67;;;19.00;66.70;;;;;;4901625;29;20469;-84
2021/08/24 05:54:47;;;;;;;2.78;2.00;;;19.00;66.80;;;;;;4917384;29;20042;-85
2021/08/24 05:57:19;;;;;;;2.63;1.77;;;19.00;66.80;;;;;;4898474;29;20047;-84
2021/08/24 05:59:45;;;;;;;3.63;2.05;;;19.00;66.90;;;;;;4900276;29;20036;-84
2021/08/24 06:02:11;;;;;;;3.35;2.13;;;18.90;66.80;;;;;;4901737;29;20462;-85
2021/08/24 06:04:36;;;;;;;2.05;1.67;;;18.90;66.90;;;;;;4901314;29;20107;-85
2021/08/24 06:07:03;;;;;;;3.60;2.17;;;18.90;66.90;;;;;;4877620;29;20040;-84
2021/08/24 06:09:29;;;;;;;2.22;1.80;;;19.00;67.00;;;;;;4916866;29;20047;-83
2021/08/24 06:11:55;;;;;;;2.47;1.83;;;19.00;67.00;;;;;;4900560;29;20416;-84
2021/08/24 06:14:23;;;;;;;2.60;1.85;;;18.90;67.00;;;;;;4916645;29;20123;-84
2021/08/24 06:16:57;;;;;;;3.03;1.90;;;18.90;67.10;;;;;;4885261;29;20040;-84
2021/08/24 06:19:27;;;;;;;2.78;1.80;;;18.90;67.10;;;;;;4917362;29;20036;-85
2021/08/24 06:21:55;;;;;;;2.80;1.92;;;18.90;67.10;;;;;;4917032;29;20076;-84
2021/08/24 06:24:21;;;;;;;3.10;2.10;;;19.00;67.20;;;;;;4916058;29;20070;-83
2021/08/24 06:26:47;;;;;;;2.58;1.85;;;18.90;67.20;;;;;;4916973;29;20441;-85
2021/08/24 06:29:13;;;;;;;3.10;2.00;;;18.90;67.20;;;;;;4917226;29;20389;-85
2021/08/24 06:31:42;;;;;;;2.75;2.00;;;19.00;67.30;;;;;;4901932;29;20465;-85
2021/08/24 06:34:10;;;;;;;3.03;1.92;;;18.90;67.30;;;;;;4926054;29;20062;-85
2021/08/24 06:36:37;;;;;;;3.25;1.90;;;19.00;67.30;;;;;;4918405;29;20168;-84
2021/08/24 06:39:05;;;;;;;3.25;1.92;;;19.00;67.40;;;;;;4900746;29;20031;-84
2021/08/24 06:41:31;;;;;;;2.75;2.00;;;19.00;67.40;;;;;;4917928;29;20465;-85
2021/08/24 06:43:56;;;;;;;4.90;2.28;;;19.00;67.40;;;;;;4899250;29;20033;-84
2021/08/24 06:46:22;;;;;;;2.65;1.90;;;19.00;67.40;;;;;;4890561;29;20051;-85
2021/08/24 06:48:48;;;;;;;2.53;2.03;;;19.00;67.50;;;;;;4913490;29;20039;-85
2021/08/24 06:51:14;;;;;;;2.40;1.55;;;19.00;67.50;;;;;;4900354;29;20032;-85
2021/08/24 06:53:41;;;;;;;3.05;2.10;;;19.00;67.50;;;;;;4885059;29;20032;-85
2021/08/24 06:56:11;;;;;;;4.40;2.00;;;19.00;67.60;;;;;;4900011;29;20099;-84
2021/08/24 06:58:42;;;;;;;3.30;2.08;;;19.00;67.60;;;;;;4916591;29;20039;-84
2021/08/24 07:01:20;;;;;;;2.70;1.83;;;19.00;67.60;;;;;;4899697;29;20069;-85
2021/08/24 07:03:46;;;;;;;2.78;1.98;;;19.00;67.70;;;;;;4916524;29;20032;-84
2021/08/24 07:06:12;;;;;;;2.08;1.70;;;19.00;67.60;;;;;;4914932;29;20050;-84
2021/08/24 07:08:38;;;;;;;3.25;1.90;;;19.00;67.70;;;;;;4900844;29;20056;-85
2021/08/24 07:11:05;;;;;;;2.70;2.00;;;19.10;67.70;;;;;;4891653;29;20033;-85
2021/08/24 07:13:33;;;;;;;2.88;1.88;;;19.00;67.70;;;;;;4910389;29;20032;-85
2021/08/24 07:15:59;;;;;;;3.75;2.20;;;19.10;67.80;;;;;;4900081;29;20127;-85
2021/08/24 07:18:25;;;;;;;4.15;2.25;;;19.10;67.80;;;;;;4916980;29;20516;-83
2021/08/24 07:20:53;;;;;;;3.47;2.25;;;19.10;67.80;;;;;;4890094;29;20025;-85
2021/08/24 07:23:19;;;;;;;2.95;2.33;;;19.10;67.80;;;;;;4899492;29;20036;-84
2021/08/24 07:25:46;;;;;;;3.42;2.10;;;19.10;67.80;;;;;;4916079;29;20064;-85
2021/08/24 07:28:12;;;;;;;3.22;1.90;;;19.10;67.80;;;;;;4915977;29;20047;-85
2021/08/24 07:30:42;;;;;;;3.28;1.85;;;19.10;67.80;;;;;;4900134;29;20119;-85
2021/08/24 07:33:09;;;;;;;2.70;2.00;;;19.10;67.80;;;;;;4915996;29;20036;-86
2021/08/24 07:35:36;;;;;;;3.67;2.30;;;19.10;67.80;;;;;;4917255;29;20043;-84
2021/08/24 07:38:03;;;;;;;4.38;2.40;;;19.20;67.90;;;;;;4893031;29;20055;-84
2021/08/24 07:40:29;;;;;;;3.38;2.30;;;19.20;67.90;;;;;;4898116;29;20028;-85
2021/08/24 07:42:55;;;;;;;2.63;2.10;;;19.20;67.90;;;;;;4884164;29;20032;-85
2021/08/24 07:45:21;;;;;;;3.80;2.40;;;19.20;67.90;;;;;;4899876;29;20499;-85
2021/08/24 07:47:47;;;;;;;4.32;2.08;;;19.20;67.90;;;;;;4919642;29;20111;-85
2021/08/24 07:50:13;;;;;;;3.55;2.28;;;19.30;68.00;;;;;;4901032;29;20128;-85
2021/08/24 07:52:39;;;;;;;2.55;1.95;;;19.20;67.90;;;;;;4918414;29;20039;-84
2021/08/24 07:55:06;;;;;;;3.30;2.25;;;19.30;67.90;;;;;;4888208;29;20040;-83
2021/08/24 07:57:32;;;;;;;3.05;2.10;;;19.30;67.90;;;;;;4896196;29;20382;-85
2021/08/24 07:59:58;;;;;;;3.00;2.20;;;19.30;67.90;;;;;;4919341;29;20107;-85
2021/08/24 08:02:23;;;;;;;2.80;1.98;;;19.30;67.90;;;;;;4900715;29;20144;-84
2021/08/24 08:04:49;;;;;;;3.58;2.45;;;19.30;67.90;;;;;;4917404;29;20029;-84
2021/08/24 08:07:16;;;;;;;3.13;2.28;;;19.30;67.90;;;;;;4903574;29;20465;-85
2021/08/24 08:09:42;;;;;;;3.08;2.22;;;19.30;67.90;;;;;;4904129;29;20488;-84
2021/08/24 08:12:09;;;;;;;3.00;2.10;;;19.40;68.00;;;;;;4900478;29;20029;-84
2021/08/24 08:14:35;;;;;;;2.70;2.22;;;19.40;68.00;;;;;;4901068;29;20082;-84
2021/08/24 08:17:01;;;;;;;2.83;2.20;;;19.40;68.00;;;;;;4916788;29;20040;-84
2021/08/24 08:19:27;;;;;;;3.70;2.20;;;19.40;68.00;;;;;;4919450;29;20064;-84
2021/08/24 08:21:52;;;;;;;3.30;2.20;;;19.50;68.00;;;;;;4884717;29;20032;-85
2021/08/24 08:24:18;;;;;;;2.63;2.10;;;19.50;68.60;;;;;;4901693;29;20066;-84
2021/08/24 08:26:44;;;;;;;2.83;1.90;;;19.50;67.90;;;;;;4919403;29;20047;-85
2021/08/24 08:29:11;;;;;;;3.00;1.95;;;19.60;67.90;;;;;;4919790;29;20032;-84
2021/08/24 08:31:44;;;;;;;3.03;2.10;;;19.50;67.80;;;;;;4911825;29;20024;-85
2021/08/24 08:34:11;;;;;;;2.78;2.03;;;19.60;67.90;;;;;;4919176;29;20035;-85
2021/08/24 08:36:37;;;;;;;6.18;2.28;;;19.60;67.70;;;;;;4918446;29;20040;-84
2021/08/24 08:39:03;;;;;;;2.78;1.80;;;19.70;67.70;;;;;;4919185;29;20043;-84
2021/08/24 08:42:01;;;;;;;2.75;1.70;;;19.70;67.60;;;;;;4895264;29;20032;-83
2021/08/24 08:45:00;;;;;;;2.70;2.03;;;19.80;67.70;;;;;;4918707;29;20071;-86
2021/08/24 08:47:49;;;;;;;3.47;2.08;;;19.80;67.60;;;;;;4918716;29;20047;-86
2021/08/24 08:50:16;;;;;;;1.85;1.65;;;19.90;67.40;;;;;;4907628;29;20544;-84
2021/08/24 08:53:05;;;;;;;2.35;1.70;;;20.00;67.30;;;;;;4901783;29;20031;-86
2021/08/24 08:55:54;;;;;;;2.65;1.83;;;20.00;67.40;;;;;;4899697;29;20152;-84
2021/08/24 08:58:39;;;;;;;2.83;1.95;;;20.10;67.30;;;;;;4889350;29;20024;-85
2021/08/24 09:01:32;;;;;;;3.88;2.00;;;20.10;67.10;;;;;;4918875;29;20028;-85
2021/08/24 09:04:26;;;;;;;2.45;1.60;;;20.20;67.10;;;;;;4918728;29;20039;-85
2021/08/24 09:06:56;;;;;;;2.58;1.60;;;20.30;67.10;;;;;;4900560;29;20079;-85
2021/08/24 09:09:23;;;;;;;3.45;1.67;;;20.30;66.80;;;;;;4919550;29;20032;-84
2021/08/24 09:11:53;;;;;;;2.63;1.63;;;20.40;66.70;;;;;;4902335;29;20036;-86
2021/08/24 09:14:39;;;;;;;2.42;1.48;;;20.50;66.70;;;;;;4910956;29;20059;-86
2021/08/24 09:17:24;;;;;;;2.35;1.60;;;20.60;66.70;;;;;;4917646;29;20036;-85
2021/08/24 09:20:13;;;;;;;2.33;1.73;;;20.60;66.50;;;;;;4917729;29;20055;-85
2021/08/24 09:22:40;;;;;;;2.67;1.70;;;20.70;66.50;;;;;;4917696;29;20516;-86
2021/08/24 09:25:14;;;;;;;1.77;1.50;;;20.80;66.30;;;;;;4917587;29;20157;-85
2021/08/24 09:28:05;;;;;;;2.08;1.63;;;20.90;66.30;;;;;;4919571;29;20039;-86
2021/08/24 09:30:31;;;;;;;1.95;1.48;;;21.00;66.30;;;;;;4918699;29;20047;-85
2021/08/24 09:33:03;;;;;;;2.55;1.65;;;21.10;66.10;;;;;;4902628;29;20036;-84
2021/08/24 09:35:33;;;;;;;2.05;1.50;;;21.10;66.00;;;;;;4917684;29;20055;-84
2021/08/24 09:38:01;;;;;;;2.17;1.77;;;21.20;66.00;;;;;;4919121;29;20052;-86
2021/08/24 09:40:46;;;;;;;3.22;1.83;;;21.30;65.90;;;;;;4901624;29;20036;-85
2021/08/24 09:43:34;;;;;;;2.42;1.55;;;21.40;66.00;;;;;;4902289;29;20434;-85
2021/08/24 09:46:15;;;;;;;2.20;1.63;;;21.50;65.80;;;;;;4901780;29;20035;-86
2021/08/24 09:48:53;;;;;;;1.60;1.50;;;21.50;65.80;;;;;;4916962;29;20079;-85
2021/08/24 09:51:34;;;;;;;3.25;1.80;;;21.60;65.70;;;;;;4917128;29;20060;-86
2021/08/24 09:54:03;;;;;;;2.10;1.40;;;21.60;65.70;;;;;;4911910;29;20034;-84
2021/08/24 09:56:36;;;;;;;2.20;1.58;;;21.70;65.60;;;;;;4916662;29;20051;-85
2021/08/24 09:59:03;;;;;;;2.30;1.58;;;21.70;65.60;;;;;;4917470;29;20115;-86
2021/08/24 10:01:45;;;;;;;2.28;1.58;;;21.80;66.20;;;;;;4917837;29;20048;-86
2021/08/24 10:04:11;;;;;;;2.65;1.67;;;21.90;65.70;;;;;;4901735;29;20516;-86
2021/08/24 10:06:53;;;;;;;3.00;1.80;;;21.90;65.50;;;;;;4898196;29;20037;-85
2021/08/24 10:09:30;;;;;;;2.15;1.63;;;22.00;65.60;;;;;;4916937;29;20036;-87
2021/08/24 10:12:26;;;;;;;2.15;1.65;;;22.10;65.50;;;;;;4925819;29;20055;-85
2021/08/24 10:14:52;;;;;;;2.50;1.58;;;22.10;65.50;;;;;;4916187;29;20079;-84
2021/08/24 10:17:31;;;;;;;2.25;1.52;;;22.20;65.30;;;;;;4917115;29;20111;-84
2021/08/24 10:19:58;;;;;;;2.92;1.70;;;22.30;65.40;;;;;;4916695;29;20436;-86
2021/08/24 10:22:30;;;;;;;2.72;1.70;;;22.30;65.20;;;;;;4901341;29;20469;-87
2021/08/24 10:24:57;;;;;;;2.65;1.70;;;22.40;65.20;;;;;;4918079;29;20044;-85
2021/08/24 10:27:39;;;;;;;2.17;1.45;;;22.40;65.10;;;;;;4918628;29;20028;-86
2021/08/24 10:30:31;;;;;;;3.17;1.70;;;22.50;65.10;;;;;;4916993;29;20084;-85
2021/08/24 10:32:59;;;;;;;1.85;1.40;;;22.50;64.90;;;;;;4904613;29;20052;-86
2021/08/24 10:35:27;;;;;;;3.00;1.70;;;22.60;64.80;;;;;;4900854;29;20679;-87
2021/08/24 10:37:54;;;;;;;3.25;1.85;;;22.70;64.80;;;;;;4915959;29;20050;-85
2021/08/24 10:40:23;;;;;;;3.53;1.70;;;22.70;64.70;;;;;;4916823;29;20122;-86
2021/08/24 10:43:03;;;;;;;2.42;1.52;;;22.80;64.60;;;;;;4918276;29;20030;-86
2021/08/24 10:45:35;;;;;;;2.53;1.55;;;22.90;64.70;;;;;;4916932;29;20028;-87
2021/08/24 10:48:24;;;;;;;2.03;1.50;;;22.90;64.50;;;;;;4901276;29;20055;-85
2021/08/24 10:51:16;;;;;;;1.88;1.60;;;23.00;64.50;;;;;;4916177;29;20041;-86
2021/08/24 10:53:44;;;;;;;1.80;1.48;;;23.10;64.40;;;;;;4916538;29;20036;-84
2021/08/24 10:56:28;;;;;;;2.10;1.52;;;23.10;64.20;;;;;;4916215;29;20131;-85
2021/08/24 10:59:31;;;;;;;2.33;1.50;;;23.20;64.30;;;;;;4917498;29;20032;-86
2021/08/24 11:02:14;;;;;;;1.88;1.50;;;23.20;64.30;;;;;;4916110;29;20068;-85
2021/08/24 11:05:22;;;;;;;2.13;1.40;;;23.30;64.10;;;;;;4917147;29;20024;-86
2021/08/24 11:08:23;;;;;;;1.60;1.30;;;23.30;64.20;;;;;;4901723;29;20036;-86
2021/08/24 11:11:11;;;;;;;1.90;1.30;;;23.40;64.20;;;;;;4911466;29;20028;-86
2021/08/24 11:14:10;;;;;;;2.08;1.60;;;23.50;64.20;;;;;;4902067;29;20484;-86
2021/08/24 11:17:06;;;;;;;2.90;1.63;;;23.50;64.20;;;;;;4925579;29;20623;-86
2021/08/24 11:19:50;;;;;;;2.10;1.50;;;23.50;64.20;;;;;;4910397;29;20752;-87
2021/08/24 11:23:05;;;;;;;2.30;1.38;;;23.60;64.20;;;;;;4916540;29;20032;-87
2021/08/24 11:25:45;;;;;;;1.52;1.23;;;23.60;64.20;;;;;;4886998;29;20115;-89
2021/08/24 11:28:17;;;;;;;1.98;1.30;;;23.60;64.00;;;;;;4897545;29;20092;-86
2021/08/24 11:30:49;;;;;;;2.17;1.50;;;23.70;64.00;;;;;;4916949;29;20513;-86
2021/08/24 11:33:25;;;;;;;2.60;1.55;;;23.70;64.00;;;;;;4915766;29;20047;-87
2021/08/24 11:36:12;;;;;;;2.13;1.48;;;23.70;64.00;;;;;;4916344;29;20032;-86
2021/08/24 11:38:43;;;;;;;2.30;1.52;;;23.80;64.20;;;;;;4910060;29;20043;-87
2021/08/24 11:41:16;;;;;;;2.17;1.40;;;23.80;64.10;;;;;;4897034;29;20033;-87
2021/08/24 11:43:51;;;;;;;2.15;1.50;;;23.80;64.80;;;;;;4893346;29;20036;-86
2021/08/24 11:46:54;;;;;;;1.60;1.20;;;23.90;64.20;;;;;;4915973;29;20028;-87
2021/08/24 11:49:31;;;;;;;1.90;1.50;;;23.90;64.30;;;;;;4915924;29;20039;-86
2021/08/24 11:52:18;;;;;;;1.35;1.20;;;23.90;64.10;;;;;;4920278;29;20090;-87
2021/08/24 11:55:06;;;;;;;3.13;1.50;;;23.90;64.00;;;;;;4909728;29;20095;-86
2021/08/24 11:58:00;;;;;;;1.75;1.30;;;23.90;63.90;;;;;;4916716;29;20039;-86
2021/08/24 12:00:29;;;;;;;2.30;1.40;;;24.00;63.90;;;;;;4915382;29;20033;-84
2021/08/24 12:02:55;;;;;;;1.98;1.40;;;24.00;63.80;;;;;;4907665;29;20043;-84
2021/08/24 12:05:28;;;;;;;1.90;1.40;;;24.00;63.70;;;;;;4915597;29;20035;-87
2021/08/24 12:07:59;;;;;;;2.55;1.50;;;24.10;63.80;;;;;;4900258;29;20482;-86
2021/08/24 12:10:49;;;;;;;2.70;1.70;;;24.10;63.80;;;;;;4916283;29;20504;-87
2021/08/24 12:13:46;;;;;;;2.63;1.67;;;24.10;63.80;;;;;;4916578;29;20036;-85
2021/08/24 12:16:21;;;;;;;1.75;1.27;;;24.10;63.70;;;;;;4890135;29;20048;-85
2021/08/24 12:18:57;;;;;;;1.98;1.50;;;24.10;63.70;;;;;;4896559;29;20404;-86
2021/08/24 12:21:29;;;;;;;2.22;1.50;;;24.20;63.70;;;;;;4897609;29;20044;-86
2021/08/24 12:23:57;;;;;;;1.85;1.30;;;24.20;63.60;;;;;;4891974;29;20037;-85
2021/08/24 12:26:34;;;;;;;2.53;1.42;;;24.20;63.70;;;;;;4915654;29;20032;-85
2021/08/24 12:29:32;;;;;;;2.03;1.35;;;24.20;63.70;;;;;;4899337;29;20040;-86
2021/08/24 12:32:00;;;;;;;2.22;1.30;;;24.20;63.60;;;;;;4896159;29;20168;-85
2021/08/24 12:34:35;;;;;;;1.77;1.30;;;24.20;63.40;;;;;;4876479;29;20095;-86
2021/08/24 12:37:04;;;;;;;2.00;1.40;;;24.20;63.50;;;;;;4912305;29;20116;-86
2021/08/24 12:39:38;;;;;;;2.05;1.50;;;24.30;63.40;;;;;;4900409;29;20037;-86
2021/08/24 12:42:25;;;;;;;2.17;1.35;;;24.30;63.40;;;;;;4920544;29;20028;-86
2021/08/24 12:45:15;;;;;;;2.28;1.60;;;24.30;63.20;;;;;;4918986;29;20044;-86
2021/08/24 12:47:45;;;;;;;1.73;1.40;;;24.30;63.10;;;;;;4919008;29;20032;-87
2021/08/24 12:50:11;;;;;;;2.40;1.70;;;24.30;63.00;;;;;;4920162;29;20028;-86
2021/08/24 12:52:38;;;;;;;1.67;1.42;;;24.40;63.00;;;;;;4900204;29;20457;-85
2021/08/24 12:55:16;;;;;;;1.73;1.40;;;24.30;62.90;;;;;;4919708;29;20115;-84
2021/08/24 12:57:58;;;;;;;2.28;1.50;;;24.40;63.00;;;;;;4917973;29;20103;-86
2021/08/24 13:00:31;;;;;;;2.30;1.73;;;24.40;63.00;;;;;;4904734;29;20037;-85
2021/08/24 13:03:15;;;;;;;2.17;1.52;;;24.40;62.80;;;;;;4918048;29;20055;-85
2021/08/24 13:05:40;;;;;;;2.22;1.50;;;24.40;62.70;;;;;;4918464;29;20028;-85
2021/08/24 13:08:20;;;;;;;2.25;1.50;;;24.40;62.60;;;;;;4918373;29;20487;-85
2021/08/24 13:10:49;;;;;;;2.42;1.60;;;24.40;62.60;;;;;;4917627;29;20107;-86
2021/08/24 13:13:27;;;;;;;2.17;1.52;;;24.40;62.60;;;;;;4918438;29;20083;-84
2021/08/24 13:15:56;;;;;;;2.28;1.58;;;24.40;62.50;;;;;;4918988;29;20036;-86